sensor_id;sensor_type;location;lat;lon;timestamp;pressure;altitude;pressure_sealevel;temperature;humidity
60852;BME280;48553;50.766;2.900;2022-12-18T00:00:55;101858.09;;;-1.32;74.84
60852;BME280;48553;50.766;2.900;2022-12-18T00:03:56;101859.13;;;-1.33;74.74
60852;BME280;48553;50.766;2.900;2022-12-18T00:06:57;101860.41;;;-1.35;75.09
60852;BME280;48553;50.766;2.900;2022-12-18T00:09:57;101861.44;;;-1.36;74.59
60852;BME280;48553;50.766;2.900;2022-12-18T00:12:57;101865.41;;;-1.39;74.56
60852;BME280;48553;50.766;2.900;2022-12-18T00:16:03;101865.88;;;-1.42;74.43
60852;BME280;48553;50.766;2.900;2022-12-18T00:19:04;101873.94;;;-1.42;74.32
60852;BME280;48553;50.766;2.900;2022-12-18T00:22:05;101866.94;;;-1.43;73.92
60852;BME280;48553;50.766;2.900;2022-12-18T00:25:06;101865.28;;;-1.44;74.14
60852;BME280;48553;50.766;2.900;2022-12-18T00:28:07;101879.78;;;-1.45;74.22
60852;BME280;48553;50.766;2.900;2022-12-18T00:31:12;101873.19;;;-1.49;74.19
60852;BME280;48553;50.766;2.900;2022-12-18T00:34:13;101871.09;;;-1.47;74.12
60852;BME280;48553;50.766;2.900;2022-12-18T00:37:14;101872.13;;;-1.48;73.90
60852;BME280;48553;50.766;2.900;2022-12-18T00:40:14;101870.72;;;-1.51;73.44
60852;BME280;48553;50.766;2.900;2022-12-18T00:43:15;101870.13;;;-1.53;73.82
60852;BME280;48553;50.766;2.900;2022-12-18T00:46:15;101884.41;;;-1.52;73.60
60852;BME280;48553;50.766;2.900;2022-12-18T00:49:17;101885.06;;;-1.57;73.69
60852;BME280;48553;50.766;2.900;2022-12-18T00:52:19;101878.88;;;-1.57;73.35
60852;BME280;48553;50.766;2.900;2022-12-18T00:55:19;101875.59;;;-1.59;73.41
60852;BME280;48553;50.766;2.900;2022-12-18T00:58:20;101880.97;;;-1.59;73.22
60852;BME280;48553;50.766;2.900;2022-12-18T01:01:20;101884.59;;;-1.65;73.42
60852;BME280;48553;50.766;2.900;2022-12-18T01:04:21;101882.94;;;-1.66;73.52
60852;BME280;48553;50.766;2.900;2022-12-18T01:07:21;101883.75;;;-1.66;73.21
60852;BME280;48553;50.766;2.900;2022-12-18T01:10:22;101886.06;;;-1.70;73.33
60852;BME280;48553;50.766;2.900;2022-12-18T01:13:23;101887.09;;;-1.71;73.26
60852;BME280;48553;50.766;2.900;2022-12-18T01:16:23;101887.09;;;-1.71;72.86
60852;BME280;48553;50.766;2.900;2022-12-18T01:19:23;101874.72;;;-1.72;72.72
60852;BME280;48553;50.766;2.900;2022-12-18T01:22:24;101878.44;;;-1.73;73.02
60852;BME280;48553;50.766;2.900;2022-12-18T01:25:25;101878.31;;;-1.78;72.95
60852;BME280;48553;50.766;2.900;2022-12-18T01:28:25;101882.66;;;-1.77;72.92
60852;BME280;48553;50.766;2.900;2022-12-18T01:31:27;101881.59;;;-1.76;72.67
60852;BME280;48553;50.766;2.900;2022-12-18T01:34:28;101860.19;;;-1.82;72.90
60852;BME280;48553;50.766;2.900;2022-12-18T01:37:28;101855.63;;;-1.82;72.62
60852;BME280;48553;50.766;2.900;2022-12-18T01:40:29;101844.06;;;-1.82;72.50
60852;BME280;48553;50.766;2.900;2022-12-18T01:43:42;101842.66;;;-1.85;72.56
60852;BME280;48553;50.766;2.900;2022-12-18T01:46:43;101839.16;;;-1.85;72.69
60852;BME280;48553;50.766;2.900;2022-12-18T01:49:43;101846.59;;;-1.87;72.66
60852;BME280;48553;50.766;2.900;2022-12-18T01:52:47;101839.22;;;-1.92;72.39
60852;BME280;48553;50.766;2.900;2022-12-18T01:55:53;101842.94;;;-1.93;72.59
60852;BME280;48553;50.766;2.900;2022-12-18T01:59:03;101831.84;;;-1.97;72.28
60852;BME280;48553;50.766;2.900;2022-12-18T02:02:06;101841.53;;;-1.96;72.28
60852;BME280;48553;50.766;2.900;2022-12-18T02:05:08;101841.16;;;-1.99;72.61
60852;BME280;48553;50.766;2.900;2022-12-18T02:08:46;101841.16;;;-1.99;72.33
60852;BME280;48553;50.766;2.900;2022-12-18T02:15:25;101848.41;;;-2.00;72.02
60852;BME280;48553;50.766;2.900;2022-12-18T02:18:36;101828.16;;;-2.02;72.18
60852;BME280;48553;50.766;2.900;2022-12-18T02:24:58;101811.69;;;-2.06;72.17
60852;BME280;48553;50.766;2.900;2022-12-18T02:28:03;101806.75;;;-2.09;71.97
60852;BME280;48553;50.766;2.900;2022-12-18T02:31:06;101808.03;;;-2.12;72.10
60852;BME280;48553;50.766;2.900;2022-12-18T02:34:09;101788.81;;;-2.08;71.94
60852;BME280;48553;50.766;2.900;2022-12-18T02:37:12;101777.69;;;-2.12;72.00
60852;BME280;48553;50.766;2.900;2022-12-18T02:40:17;101772.53;;;-2.14;72.42
60852;BME280;48553;50.766;2.900;2022-12-18T02:43:18;101770.31;;;-2.17;72.13
60852;BME280;48553;50.766;2.900;2022-12-18T02:49:34;101767.84;;;-2.18;71.88
60852;BME280;48553;50.766;2.900;2022-12-18T02:55:52;101768.28;;;-2.21;71.89
60852;BME280;48553;50.766;2.900;2022-12-18T02:59:01;101754.06;;;-2.22;72.05
60852;BME280;48553;50.766;2.900;2022-12-18T03:02:27;101764.78;;;-2.22;71.69
60852;BME280;48553;50.766;2.900;2022-12-18T03:05:33;101755.53;;;-2.26;72.01
60852;BME280;48553;50.766;2.900;2022-12-18T03:08:39;101747.72;;;-2.27;72.20
60852;BME280;48553;50.766;2.900;2022-12-18T03:11:45;101750.38;;;-2.27;72.05
60852;BME280;48553;50.766;2.900;2022-12-18T03:15:14;101759.28;;;-2.27;71.88
60852;BME280;48553;50.766;2.900;2022-12-18T03:18:26;101758.44;;;-2.27;71.84
60852;BME280;48553;50.766;2.900;2022-12-18T03:21:38;101766.75;;;-2.29;71.92
60852;BME280;48553;50.766;2.900;2022-12-18T03:24:40;101770.69;;;-2.32;72.24
60852;BME280;48553;50.766;2.900;2022-12-18T03:27:46;101783.28;;;-2.32;71.81
60852;BME280;48553;50.766;2.900;2022-12-18T03:30:51;101784.94;;;-2.31;71.81
60852;BME280;48553;50.766;2.900;2022-12-18T03:33:56;101778.75;;;-2.32;71.83
60852;BME280;48553;50.766;2.900;2022-12-18T03:36:58;101787.03;;;-2.33;71.94
60852;BME280;48553;50.766;2.900;2022-12-18T03:39:58;101788.28;;;-2.36;71.72
60852;BME280;48553;50.766;2.900;2022-12-18T03:43:03;101777.78;;;-2.37;71.87
60852;BME280;48553;50.766;2.900;2022-12-18T03:46:38;101773.22;;;-2.37;71.86
60852;BME280;48553;50.766;2.900;2022-12-18T03:50:19;101790.38;;;-2.38;71.62
60852;BME280;48553;50.766;2.900;2022-12-18T03:53:25;101791.41;;;-2.39;71.60
60852;BME280;48553;50.766;2.900;2022-12-18T03:56:31;101787.91;;;-2.39;71.94
60852;BME280;48553;50.766;2.900;2022-12-18T03:59:34;101793.06;;;-2.38;71.74
60852;BME280;48553;50.766;2.900;2022-12-18T04:02:38;101797.22;;;-2.42;71.56
60852;BME280;48553;50.766;2.900;2022-12-18T04:05:41;101802.00;;;-2.44;71.59
60852;BME280;48553;50.766;2.900;2022-12-18T04:08:42;101798.03;;;-2.41;71.41
60852;BME280;48553;50.766;2.900;2022-12-18T04:11:43;101793.94;;;-2.44;71.59
60852;BME280;48553;50.766;2.900;2022-12-18T04:14:44;101803.06;;;-2.45;71.85
60852;BME280;48553;50.766;2.900;2022-12-18T04:17:49;101798.50;;;-2.44;71.43
60852;BME280;48553;50.766;2.900;2022-12-18T04:20:49;101803.94;;;-2.51;71.30
60852;BME280;48553;50.766;2.900;2022-12-18T04:23:50;101798.13;;;-2.48;71.58
60852;BME280;48553;50.766;2.900;2022-12-18T04:26:50;101794.81;;;-2.50;71.74
60852;BME280;48553;50.766;2.900;2022-12-18T04:29:51;101777.31;;;-2.53;71.36
60852;BME280;48553;50.766;2.900;2022-12-18T04:32:51;101777.09;;;-2.51;71.57
60852;BME280;48553;50.766;2.900;2022-12-18T04:35:52;101791.56;;;-2.52;71.26
60852;BME280;48553;50.766;2.900;2022-12-18T04:38:52;101792.22;;;-2.57;71.86
60852;BME280;48553;50.766;2.900;2022-12-18T04:41:52;101777.97;;;-2.57;71.81
60852;BME280;48553;50.766;2.900;2022-12-18T04:44:53;101764.81;;;-2.59;71.61
60852;BME280;48553;50.766;2.900;2022-12-18T04:47:53;101759.44;;;-2.59;71.60
60852;BME280;48553;50.766;2.900;2022-12-18T04:50:53;101747.66;;;-2.58;71.39
60852;BME280;48553;50.766;2.900;2022-12-18T04:53:54;101748.72;;;-2.59;71.52
60852;BME280;48553;50.766;2.900;2022-12-18T04:56:54;101746.03;;;-2.59;71.93
60852;BME280;48553;50.766;2.900;2022-12-18T04:59:55;101753.22;;;-2.59;71.61
60852;BME280;48553;50.766;2.900;2022-12-18T05:02:55;101755.56;;;-2.63;72.01
60852;BME280;48553;50.766;2.900;2022-12-18T05:05:55;101763.16;;;-2.60;71.75
60852;BME280;48553;50.766;2.900;2022-12-18T05:08:56;101771.41;;;-2.61;71.64
60852;BME280;48553;50.766;2.900;2022-12-18T05:11:56;101780.31;;;-2.61;71.83
60852;BME280;48553;50.766;2.900;2022-12-18T05:14:57;101776.41;;;-2.65;71.53
60852;BME280;48553;50.766;2.900;2022-12-18T05:17:58;101778.66;;;-2.62;71.72
60852;BME280;48553;50.766;2.900;2022-12-18T05:20:59;101770.84;;;-2.63;71.38
60852;BME280;48553;50.766;2.900;2022-12-18T05:23:59;101769.41;;;-2.66;71.57
60852;BME280;48553;50.766;2.900;2022-12-18T05:27:00;101755.78;;;-2.64;71.70
60852;BME280;48553;50.766;2.900;2022-12-18T05:30:00;101764.03;;;-2.66;71.68
60852;BME280;48553;50.766;2.900;2022-12-18T05:33:01;101764.03;;;-2.66;71.60
60852;BME280;48553;50.766;2.900;2022-12-18T05:36:05;101770.44;;;-2.67;71.71
60852;BME280;48553;50.766;2.900;2022-12-18T05:39:06;101760.19;;;-2.70;71.57
60852;BME280;48553;50.766;2.900;2022-12-18T05:42:06;101746.75;;;-2.70;71.74
60852;BME280;48553;50.766;2.900;2022-12-18T05:45:07;101758.91;;;-2.67;71.53
60852;BME280;48553;50.766;2.900;2022-12-18T05:48:08;101737.06;;;-2.71;71.65
60852;BME280;48553;50.766;2.900;2022-12-18T05:51:15;101742.41;;;-2.71;71.35
60852;BME280;48553;50.766;2.900;2022-12-18T05:54:15;101747.78;;;-2.71;71.70
60852;BME280;48553;50.766;2.900;2022-12-18T05:57:16;101742.88;;;-2.74;71.61
60852;BME280;48553;50.766;2.900;2022-12-18T06:00:16;101733.16;;;-2.75;71.63
60852;BME280;48553;50.766;2.900;2022-12-18T06:03:17;101735.63;;;-2.74;71.59
60852;BME280;48553;50.766;2.900;2022-12-18T06:06:23;101740.19;;;-2.74;71.57
60852;BME280;48553;50.766;2.900;2022-12-18T06:09:24;101747.63;;;-2.76;71.67
60852;BME280;48553;50.766;2.900;2022-12-18T06:12:24;101728.25;;;-2.78;71.37
60852;BME280;48553;50.766;2.900;2022-12-18T06:15:25;101717.75;;;-2.80;71.66
60852;BME280;48553;50.766;2.900;2022-12-18T06:18:25;101713.78;;;-2.77;71.84
60852;BME280;48553;50.766;2.900;2022-12-18T06:21:27;101713.78;;;-2.77;71.75
60852;BME280;48553;50.766;2.900;2022-12-18T06:24:27;101704.13;;;-2.78;71.30
60852;BME280;48553;50.766;2.900;2022-12-18T06:27:27;101701.88;;;-2.81;71.58
60852;BME280;48553;50.766;2.900;2022-12-18T06:30:28;101694.88;;;-2.82;72.00
60852;BME280;48553;50.766;2.900;2022-12-18T06:33:28;101689.97;;;-2.85;71.95
60852;BME280;48553;50.766;2.900;2022-12-18T06:36:29;101681.91;;;-2.85;71.81
60852;BME280;48553;50.766;2.900;2022-12-18T06:39:30;101680.03;;;-2.85;72.13
60852;BME280;48553;50.766;2.900;2022-12-18T06:42:30;101682.72;;;-2.85;71.80
60852;BME280;48553;50.766;2.900;2022-12-18T06:45:32;101685.03;;;-2.88;71.90
60852;BME280;48553;50.766;2.900;2022-12-18T06:48:32;101688.56;;;-2.88;72.15
60852;BME280;48553;50.766;2.900;2022-12-18T06:51:33;101674.28;;;-2.88;72.10
60852;BME280;48553;50.766;2.900;2022-12-18T06:54:33;101668.94;;;-2.88;72.16
60852;BME280;48553;50.766;2.900;2022-12-18T06:57:34;101652.84;;;-2.88;71.94
60852;BME280;48553;50.766;2.900;2022-12-18T07:00:34;101636.41;;;-2.92;71.62
60852;BME280;48553;50.766;2.900;2022-12-18T07:03:35;101629.16;;;-2.91;72.07
60852;BME280;48553;50.766;2.900;2022-12-18T07:06:35;101641.38;;;-2.96;72.21
60852;BME280;48553;50.766;2.900;2022-12-18T07:09:36;101639.53;;;-2.95;72.10
60852;BME280;48553;50.766;2.900;2022-12-18T07:12:36;101637.22;;;-2.91;72.03
60852;BME280;48553;50.766;2.900;2022-12-18T07:15:37;101621.34;;;-2.93;72.20
60852;BME280;48553;50.766;2.900;2022-12-18T07:18:37;101610.03;;;-2.95;72.27
60852;BME280;48553;50.766;2.900;2022-12-18T07:21:38;101609.78;;;-2.94;72.37
60852;BME280;48553;50.766;2.900;2022-12-18T07:24:38;101604.88;;;-2.97;72.24
60852;BME280;48553;50.766;2.900;2022-12-18T07:27:38;101612.94;;;-2.97;72.27
60852;BME280;48553;50.766;2.900;2022-12-18T07:30:39;101626.94;;;-2.95;72.15
60852;BME280;48553;50.766;2.900;2022-12-18T07:33:40;101630.03;;;-2.98;72.56
60852;BME280;48553;50.766;2.900;2022-12-18T07:36:41;101633.72;;;-2.92;72.32
60852;BME280;48553;50.766;2.900;2022-12-18T07:39:41;101640.34;;;-2.95;72.49
60852;BME280;48553;50.766;2.900;2022-12-18T07:42:41;101638.47;;;-2.94;72.62
60852;BME280;48553;50.766;2.900;2022-12-18T07:45:42;101640.69;;;-2.91;72.48
60852;BME280;48553;50.766;2.900;2022-12-18T07:48:43;101621.78;;;-2.96;72.59
60852;BME280;48553;50.766;2.900;2022-12-18T07:51:44;101634.38;;;-2.97;72.81
60852;BME280;48553;50.766;2.900;2022-12-18T07:54:49;101628.56;;;-2.94;73.08
60852;BME280;48553;50.766;2.900;2022-12-18T07:57:50;101636.59;;;-2.94;72.82
60852;BME280;48553;50.766;2.900;2022-12-18T08:00:50;101624.25;;;-2.95;73.14
60852;BME280;48553;50.766;2.900;2022-12-18T08:03:52;101619.25;;;-2.91;73.13
60852;BME280;48553;50.766;2.900;2022-12-18T08:06:52;101609.78;;;-2.94;72.99
60852;BME280;48553;50.766;2.900;2022-12-18T08:09:53;101611.66;;;-2.94;73.38
60852;BME280;48553;50.766;2.900;2022-12-18T08:12:53;101600.47;;;-2.91;73.41
60852;BME280;48553;50.766;2.900;2022-12-18T08:15:58;101608.53;;;-2.91;73.57
60852;BME280;48553;50.766;2.900;2022-12-18T08:18:59;101598.63;;;-2.90;73.67
60852;BME280;48553;50.766;2.900;2022-12-18T08:21:59;101592.44;;;-2.91;73.98
60852;BME280;48553;50.766;2.900;2022-12-18T08:25:00;101599.44;;;-2.90;74.17
60852;BME280;48553;50.766;2.900;2022-12-18T08:28:00;101602.25;;;-2.85;74.11
60852;BME280;48553;50.766;2.900;2022-12-18T08:31:01;101595.28;;;-2.86;73.88
60852;BME280;48553;50.766;2.900;2022-12-18T08:34:01;101584.97;;;-2.89;74.10
60852;BME280;48553;50.766;2.900;2022-12-18T08:37:02;101591.63;;;-2.91;74.48
60852;BME280;48553;50.766;2.900;2022-12-18T08:40:02;101600.84;;;-2.87;74.72
60852;BME280;48553;50.766;2.900;2022-12-18T08:43:03;101592.00;;;-2.88;74.92
60852;BME280;48553;50.766;2.900;2022-12-18T08:46:24;101592.59;;;-2.86;74.99
60852;BME280;48553;50.766;2.900;2022-12-18T08:49:25;101583.72;;;-2.86;75.32
60852;BME280;48553;50.766;2.900;2022-12-18T08:52:25;101584.69;;;-2.81;75.24
60852;BME280;48553;50.766;2.900;2022-12-18T08:55:26;101584.31;;;-2.84;75.36
60852;BME280;48553;50.766;2.900;2022-12-18T08:58:26;101587.38;;;-2.81;75.23
60852;BME280;48553;50.766;2.900;2022-12-18T09:01:27;101587.50;;;-2.76;75.27
60852;BME280;48553;50.766;2.900;2022-12-18T09:04:28;101574.69;;;-2.74;75.37
60852;BME280;48553;50.766;2.900;2022-12-18T09:07:28;101577.16;;;-2.72;75.42
60852;BME280;48553;50.766;2.900;2022-12-18T09:10:28;101578.41;;;-2.75;75.42
60852;BME280;48553;50.766;2.900;2022-12-18T09:13:29;101593.25;;;-2.72;75.91
60852;BME280;48553;50.766;2.900;2022-12-18T09:16:29;101598.59;;;-2.72;75.83
60852;BME280;48553;50.766;2.900;2022-12-18T09:19:31;101591.97;;;-2.69;76.14
60852;BME280;48553;50.766;2.900;2022-12-18T09:22:31;101602.50;;;-2.68;76.21
60852;BME280;48553;50.766;2.900;2022-12-18T09:25:33;101582.88;;;-2.68;76.23
60852;BME280;48553;50.766;2.900;2022-12-18T09:28:35;101575.78;;;-2.63;76.00
60852;BME280;48553;50.766;2.900;2022-12-18T09:31:37;101569.81;;;-2.65;76.69
60852;BME280;48553;50.766;2.900;2022-12-18T09:34:38;101564.81;;;-2.61;76.76
60852;BME280;48553;50.766;2.900;2022-12-18T09:37:38;101564.81;;;-2.61;76.80
60852;BME280;48553;50.766;2.900;2022-12-18T09:40:45;101565.66;;;-2.61;76.83
60852;BME280;48553;50.766;2.900;2022-12-18T09:43:50;101566.69;;;-2.62;76.82
60852;BME280;48553;50.766;2.900;2022-12-18T09:47:15;101558.75;;;-2.57;76.98
60852;BME280;48553;50.766;2.900;2022-12-18T09:50:34;101557.72;;;-2.56;77.04
60852;BME280;48553;50.766;2.900;2022-12-18T09:53:37;101555.41;;;-2.52;77.18
60852;BME280;48553;50.766;2.900;2022-12-18T09:56:42;101551.31;;;-2.55;76.98
60852;BME280;48553;50.766;2.900;2022-12-18T09:59:47;101550.06;;;-2.52;77.13
60852;BME280;48553;50.766;2.900;2022-12-18T10:02:51;101547.72;;;-2.48;77.29
60852;BME280;48553;50.766;2.900;2022-12-18T10:06:50;101548.31;;;-2.46;77.12
60852;BME280;48553;50.766;2.900;2022-12-18T10:16:38;101557.16;;;-2.46;77.86
60852;BME280;48553;50.766;2.900;2022-12-18T10:19:49;101547.25;;;-2.45;77.89
60852;BME280;48553;50.766;2.900;2022-12-18T10:26:06;101554.97;;;-2.37;78.05
60852;BME280;48553;50.766;2.900;2022-12-18T10:29:12;101550.44;;;-2.37;77.83
60852;BME280;48553;50.766;2.900;2022-12-18T10:32:22;101542.63;;;-2.38;78.27
60852;BME280;48553;50.766;2.900;2022-12-18T10:35:25;101530.81;;;-2.37;78.31
60852;BME280;48553;50.766;2.900;2022-12-18T10:38:29;101538.56;;;-2.29;77.72
60852;BME280;48553;50.766;2.900;2022-12-18T10:41:29;101541.69;;;-2.32;77.98
60852;BME280;48553;50.766;2.900;2022-12-18T10:44:31;101539.59;;;-2.30;78.36
60852;BME280;48553;50.766;2.900;2022-12-18T10:47:33;101531.53;;;-2.30;78.36
60852;BME280;48553;50.766;2.900;2022-12-18T10:50:36;101533.19;;;-2.29;78.56
60852;BME280;48553;50.766;2.900;2022-12-18T10:53:37;101527.56;;;-2.27;78.55
60852;BME280;48553;50.766;2.900;2022-12-18T10:56:39;101526.53;;;-2.26;78.58
60852;BME280;48553;50.766;2.900;2022-12-18T10:59:59;101524.44;;;-2.24;78.71
60852;BME280;48553;50.766;2.900;2022-12-18T11:03:01;101518.59;;;-2.21;78.97
60852;BME280;48553;50.766;2.900;2022-12-18T11:06:05;101504.47;;;-2.17;78.27
60852;BME280;48553;50.766;2.900;2022-12-18T11:09:19;101499.59;;;-2.20;78.79
60852;BME280;48553;50.766;2.900;2022-12-18T11:12:22;101500.16;;;-2.18;78.64
60852;BME280;48553;50.766;2.900;2022-12-18T11:15:26;101489.53;;;-2.13;78.66
60852;BME280;48553;50.766;2.900;2022-12-18T11:18:34;101493.41;;;-2.08;78.43
60852;BME280;48553;50.766;2.900;2022-12-18T11:21:39;101488.25;;;-2.10;78.60
60852;BME280;48553;50.766;2.900;2022-12-18T11:24:41;101482.06;;;-2.11;78.82
60852;BME280;48553;50.766;2.900;2022-12-18T11:27:48;101495.84;;;-2.07;79.02
60852;BME280;48553;50.766;2.900;2022-12-18T11:30:49;101497.13;;;-2.10;78.95
60852;BME280;48553;50.766;2.900;2022-12-18T11:37:16;101496.78;;;-2.01;78.74
60852;BME280;48553;50.766;2.900;2022-12-18T11:40:27;101489.44;;;-2.06;78.93
60852;BME280;48553;50.766;2.900;2022-12-18T11:43:41;101488.16;;;-2.03;79.21
60852;BME280;48553;50.766;2.900;2022-12-18T11:46:49;101486.84;;;-2.01;79.14
60852;BME280;48553;50.766;2.900;2022-12-18T11:49:52;101477.78;;;-2.00;79.30
60852;BME280;48553;50.766;2.900;2022-12-18T11:52:55;101484.53;;;-1.97;79.19
60852;BME280;48553;50.766;2.900;2022-12-18T12:13:08;101458.69;;;-1.86;79.17
60852;BME280;48553;50.766;2.900;2022-12-18T12:16:37;101460.25;;;-1.91;78.99
60852;BME280;48553;50.766;2.900;2022-12-18T12:20:02;101461.16;;;-1.85;78.97
60852;BME280;48553;50.766;2.900;2022-12-18T12:23:26;101461.06;;;-1.90;79.47
60852;BME280;48553;50.766;2.900;2022-12-18T12:39:40;101439.31;;;-1.77;79.26
60852;BME280;48553;50.766;2.900;2022-12-18T12:42:52;101432.88;;;-1.76;79.14
60852;BME280;48553;50.766;2.900;2022-12-18T12:46:16;101434.75;;;-1.76;79.28
60852;BME280;48553;50.766;2.900;2022-12-18T12:49:20;101429.16;;;-1.75;79.38
60852;BME280;48553;50.766;2.900;2022-12-18T12:52:45;101418.97;;;-1.73;78.89
60852;BME280;48553;50.766;2.900;2022-12-18T12:55:46;101409.88;;;-1.72;79.15
60852;BME280;48553;50.766;2.900;2022-12-18T12:59:14;101401.22;;;-1.74;79.70
60852;BME280;48553;50.766;2.900;2022-12-18T13:02:39;101396.66;;;-1.73;80.08
60852;BME280;48553;50.766;2.900;2022-12-18T13:05:50;101389.53;;;-1.67;79.06
60852;BME280;48553;50.766;2.900;2022-12-18T13:08:58;101375.84;;;-1.66;79.23
60852;BME280;48553;50.766;2.900;2022-12-18T13:12:04;101381.47;;;-1.67;79.44
60852;BME280;48553;50.766;2.900;2022-12-18T13:16:09;101382.06;;;-1.65;79.61
60852;BME280;48553;50.766;2.900;2022-12-18T13:19:21;101368.34;;;-1.64;79.22
60852;BME280;48553;50.766;2.900;2022-12-18T13:22:34;101365.44;;;-1.62;79.26
60852;BME280;48553;50.766;2.900;2022-12-18T13:25:36;101362.75;;;-1.62;79.33
60852;BME280;48553;50.766;2.900;2022-12-18T13:38:32;101358.44;;;-1.63;80.01
60852;BME280;48553;50.766;2.900;2022-12-18T13:41:35;101345.56;;;-1.61;79.39
60852;BME280;48553;50.766;2.900;2022-12-18T13:47:37;101339.72;;;-1.58;79.98
60852;BME280;48553;50.766;2.900;2022-12-18T13:50:38;101327.59;;;-1.61;79.49
60852;BME280;48553;50.766;2.900;2022-12-18T13:53:44;101340.53;;;-1.58;80.00
60852;BME280;48553;50.766;2.900;2022-12-18T13:56:47;101345.19;;;-1.53;79.47
60852;BME280;48553;50.766;2.900;2022-12-18T13:59:48;101349.75;;;-1.54;79.27
60852;BME280;48553;50.766;2.900;2022-12-18T14:02:50;101339.47;;;-1.57;79.79
60852;BME280;48553;50.766;2.900;2022-12-18T14:06:08;101337.13;;;-1.53;79.94
60852;BME280;48553;50.766;2.900;2022-12-18T14:09:14;101324.75;;;-1.54;80.13
60852;BME280;48553;50.766;2.900;2022-12-18T14:12:18;101333.13;;;-1.51;79.60
60852;BME280;48553;50.766;2.900;2022-12-18T14:15:41;101327.44;;;-1.54;79.86
60852;BME280;48553;50.766;2.900;2022-12-18T14:18:56;101315.72;;;-1.48;80.10
60852;BME280;48553;50.766;2.900;2022-12-18T14:21:58;101321.34;;;-1.50;79.72
60852;BME280;48553;50.766;2.900;2022-12-18T14:25:13;101325.41;;;-1.47;79.81
60852;BME280;48553;50.766;2.900;2022-12-18T14:28:15;101324.03;;;-1.50;79.78
60852;BME280;48553;50.766;2.900;2022-12-18T14:31:26;101333.13;;;-1.51;79.99
60852;BME280;48553;50.766;2.900;2022-12-18T14:34:27;101337.72;;;-1.51;79.78
60852;BME280;48553;50.766;2.900;2022-12-18T14:37:27;101327.53;;;-1.49;80.30
60852;BME280;48553;50.766;2.900;2022-12-18T14:40:28;101321.66;;;-1.46;79.61
60852;BME280;48553;50.766;2.900;2022-12-18T14:43:31;101310.91;;;-1.46;80.02
60852;BME280;48553;50.766;2.900;2022-12-18T14:46:35;101312.56;;;-1.45;79.99
60852;BME280;48553;50.766;2.900;2022-12-18T14:49:37;101313.59;;;-1.46;80.09
60852;BME280;48553;50.766;2.900;2022-12-18T14:52:38;101319.25;;;-1.48;79.64
60852;BME280;48553;50.766;2.900;2022-12-18T14:55:46;101322.25;;;-1.44;79.71
60852;BME280;48553;50.766;2.900;2022-12-18T14:58:53;101314.75;;;-1.42;79.72
60852;BME280;48553;50.766;2.900;2022-12-18T15:05:20;101312.56;;;-1.45;80.32
60852;BME280;48553;50.766;2.900;2022-12-18T15:08:30;101309.59;;;-1.43;79.95
60852;BME280;48553;50.766;2.900;2022-12-18T15:14:40;101311.56;;;-1.39;79.89
60852;BME280;48553;50.766;2.900;2022-12-18T15:17:41;101302.13;;;-1.41;80.11
60852;BME280;48553;50.766;2.900;2022-12-18T15:20:43;101299.69;;;-1.43;80.48
60852;BME280;48553;50.766;2.900;2022-12-18T15:26:44;101295.94;;;-1.42;80.11
60852;BME280;48553;50.766;2.900;2022-12-18T15:30:03;101285.25;;;-1.37;80.01
60852;BME280;48553;50.766;2.900;2022-12-18T15:33:23;101288.44;;;-1.40;80.80
60852;BME280;48553;50.766;2.900;2022-12-18T15:36:28;101278.50;;;-1.39;80.99
60852;BME280;48553;50.766;2.900;2022-12-18T15:39:29;101279.00;;;-1.42;81.34
60852;BME280;48553;50.766;2.900;2022-12-18T15:42:30;101274.44;;;-1.42;81.32
60852;BME280;48553;50.766;2.900;2022-12-18T15:45:49;101271.00;;;-1.37;80.70
60852;BME280;48553;50.766;2.900;2022-12-18T15:48:51;101263.75;;;-1.37;80.75
60852;BME280;48553;50.766;2.900;2022-12-18T15:51:54;101263.53;;;-1.35;81.19
60852;BME280;48553;50.766;2.900;2022-12-18T15:54:57;101263.53;;;-1.35;80.95
60852;BME280;48553;50.766;2.900;2022-12-18T15:58:18;101263.03;;;-1.32;81.07
60852;BME280;48553;50.766;2.900;2022-12-18T16:01:20;101258.50;;;-1.32;80.70
60852;BME280;48553;50.766;2.900;2022-12-18T16:04:23;101260.34;;;-1.32;81.42
60852;BME280;48553;50.766;2.900;2022-12-18T16:07:24;101256.03;;;-1.33;81.80
60852;BME280;48553;50.766;2.900;2022-12-18T16:10:26;101255.06;;;-1.27;81.13
60852;BME280;48553;50.766;2.900;2022-12-18T16:13:27;101255.06;;;-1.27;81.13
60852;BME280;48553;50.766;2.900;2022-12-18T16:16:27;101253.66;;;-1.30;81.76
60852;BME280;48553;50.766;2.900;2022-12-18T16:19:28;101243.47;;;-1.28;82.11
60852;BME280;48553;50.766;2.900;2022-12-18T16:22:29;101244.53;;;-1.29;82.05
60852;BME280;48553;50.766;2.900;2022-12-18T16:25:30;101252.91;;;-1.25;82.10
60852;BME280;48553;50.766;2.900;2022-12-18T16:28:31;101248.63;;;-1.26;82.20
60852;BME280;48553;50.766;2.900;2022-12-18T16:31:31;101244.06;;;-1.26;82.15
60852;BME280;48553;50.766;2.900;2022-12-18T16:34:33;101244.38;;;-1.22;81.96
60852;BME280;48553;50.766;2.900;2022-12-18T16:37:34;101244.97;;;-1.20;82.42
60852;BME280;48553;50.766;2.900;2022-12-18T16:40:34;101243.41;;;-1.16;82.37
60852;BME280;48553;50.766;2.900;2022-12-18T16:43:55;101242.84;;;-1.18;82.44
60852;BME280;48553;50.766;2.900;2022-12-18T16:46:55;101250.06;;;-1.18;82.65
60852;BME280;48553;50.766;2.900;2022-12-18T16:50:02;101248.53;;;-1.14;82.87
60852;BME280;48553;50.766;2.900;2022-12-18T16:53:03;101240.47;;;-1.14;82.43
60852;BME280;48553;50.766;2.900;2022-12-18T16:56:03;101240.22;;;-1.13;82.46
60852;BME280;48553;50.766;2.900;2022-12-18T16:59:04;101246.41;;;-1.12;82.52
60852;BME280;48553;50.766;2.900;2022-12-18T17:02:06;101234.84;;;-1.13;82.78
60852;BME280;48553;50.766;2.900;2022-12-18T17:05:11;101238.13;;;-1.11;83.15
60852;BME280;48553;50.766;2.900;2022-12-18T17:08:11;101243.50;;;-1.11;82.91
60852;BME280;48553;50.766;2.900;2022-12-18T17:11:11;101233.31;;;-1.09;83.30
60852;BME280;48553;50.766;2.900;2022-12-18T17:14:15;101237.38;;;-1.06;83.26
60852;BME280;48553;50.766;2.900;2022-12-18T17:17:16;101239.00;;;-1.05;83.18
60852;BME280;48553;50.766;2.900;2022-12-18T17:20:16;101236.06;;;-1.03;83.65
60852;BME280;48553;50.766;2.900;2022-12-18T17:23:17;101234.19;;;-1.03;83.46